Accueil
METAR-TAF:

METAR-TAF

Aéroports :

Aéroport international de Koweït

Koweït, Koweït

latitude: 29-13N, longitude: 047-59E, altitude: 55 m

Observation

Le bulletin a été fait il y a 46 minutes, à 22:00 UTC
Vent calme
Température 13°C
Humidité 62%
Pression 1015 hPa
Visibilité: 7000 m
Ciel clair

METAR: OKBK 282200Z 00000KT 7000 SKC 13/06 Q1015 NOSIG

Heure: 01:46 (22:46 UTC)

Prévision

Le bulletin a été fait il y a 6 heures et 1 minutes, à 16:45 UTC
Prévision valable du 28 à 18 UTC au 29 à 24 UTC
Vent 3 kt de direction variable
Visibilité: 7000 m
Temporairement
du 28 à 21 UTC au 29 à 06 UTC
Visibilité: 2000 m
brume
Evoluant progressivement
du 29 à 09 UTC au 29 à 11 UTC
Vent 8 kt de est/sud-est avec des rafales jusqu'à 18 kt

TAF: OKBK 281645Z 2818/2924 VRB03KT 7000 NSC TEMPO 2821/2906 2000 BR BECMG 2909/2911 12008G18KT

Observations et prévisions météorologiques de plus de 4000 aéroports (messages METAR et TAF).

Les stations disponibles sont représentées par des disques jaunes et rouges sur la carte.

Passer la souris dessus pour voir le nom de la station.

Cliquer dessus pour voir les observations et prévisions météorologiques.

Pour changer de carte: cliquez sur les boutons verts avec une croix noire pour zoomer, sur le bouton vert avec un tiret pour effectuer un zoom arrière, ou sur les flèches vertes pour les cartes adjacentes.


METAR-TAF: